Time;durP1;ratioP1;P1;durP2;ratioP2;P2;SDS_P1;SDS_P2;PMS_P1;PMS_P2;Temp;Humidity;BMP_temperature;BMP_pressure;BME280_temperature;BME280_humidity;BME280_pressure;Samples;Min_cycle;Max_cycle;Signal;HPM_P1;HPM_P2
2022/02/25 00:00:19;;;;;;;18.20;10.40;;;;;;;-2.29;100.00;93430.56;5012059;28;20058;-84
2022/02/25 00:02:45;;;;;;;38.83;18.35;;;;;;;-2.31;100.00;93427.41;5011499;28;20468;-84
2022/02/25 00:05:12;;;;;;;33.88;16.80;;;;;;;-2.34;100.00;93428.44;5011535;28;20045;-84
2022/02/25 00:07:39;;;;;;;33.53;17.20;;;;;;;-2.34;100.00;93427.63;5011173;28;20049;-84
2022/02/25 00:10:10;;;;;;;38.67;19.60;;;;;;;-2.29;100.00;93426.34;5011311;28;20065;-84
2022/02/25 00:12:37;;;;;;;31.65;16.52;;;;;;;-2.24;100.00;93423.44;5011230;28;20046;-84
2022/02/25 00:15:04;;;;;;;21.30;11.13;;;;;;;-2.27;100.00;93418.66;5011068;28;20042;-84
2022/02/25 00:17:31;;;;;;;16.23;9.05;;;;;;;-2.30;100.00;93421.44;5008530;28;20042;-84
2022/02/25 00:19:58;;;;;;;12.80;7.10;;;;;;;-2.33;100.00;93414.94;5011025;28;20046;-84
2022/02/25 00:22:25;;;;;;;12.40;7.13;;;;;;;-2.48;100.00;93406.94;5011218;28;20049;-84
2022/02/25 00:24:52;;;;;;;13.20;7.30;;;;;;;-2.59;100.00;93394.44;5008592;28;20455;-84
2022/02/25 00:27:20;;;;;;;17.30;7.60;;;;;;;-2.51;100.00;93408.91;5011620;28;20046;-84
2022/02/25 00:29:47;;;;;;;11.23;6.53;;;;;;;-2.52;100.00;93403.06;5011357;28;20054;-84
2022/02/25 00:32:14;;;;;;;12.85;6.88;;;;;;;-2.71;100.00;93386.97;5011414;28;20413;-85
2022/02/25 00:34:40;;;;;;;19.77;10.65;;;;;;;-2.69;100.00;93401.91;5011559;28;20084;-85
2022/02/25 00:37:07;;;;;;;24.20;13.35;;;;;;;-2.83;100.00;93385.41;5011310;28;20046;-85
2022/02/25 00:39:34;;;;;;;39.55;22.23;;;;;;;-2.88;100.00;93382.50;5011391;28;20058;-85
2022/02/25 00:42:04;;;;;;;44.60;25.52;;;;;;;-2.99;100.00;93386.66;5011336;28;20042;-86
2022/02/25 00:44:33;;;;;;;40.53;22.98;;;;;;;-4.03;100.00;93224.84;5011259;28;20054;-85
2022/02/25 00:47:00;;;;;;;34.33;19.13;;;;;;;-3.08;100.00;93367.28;5010425;28;20046;-86
2022/02/25 00:49:26;;;;;;;36.83;20.42;;;;;;;-3.13;100.00;93356.81;5011084;28;20057;-85
2022/02/25 00:51:53;;;;;;;36.70;20.95;;;;;;;-3.04;100.00;93351.06;5010344;28;20486;-85
2022/02/25 00:54:20;;;;;;;41.17;23.35;;;;;;;-2.82;100.00;93384.53;5010709;28;20046;-85
2022/02/25 00:56:47;;;;;;;40.53;21.95;;;;;;;-2.77;100.00;93379.13;5010875;28;20422;-85
2022/02/25 00:59:14;;;;;;;42.42;20.98;;;;;;;-2.80;100.00;93377.66;5010387;28;20050;-85
2022/02/25 01:01:43;;;;;;;39.63;21.02;;;;;;;-2.80;100.00;93376.84;5010382;28;20054;-85
2022/02/25 01:04:10;;;;;;;37.38;19.65;;;;;;;-2.88;100.00;93352.34;5010634;28;20498;-86
2022/02/25 01:06:37;;;;;;;37.67;20.10;;;;;;;-2.85;100.00;93378.03;5010933;28;20053;-86
2022/02/25 01:09:04;;;;;;;34.35;17.70;;;;;;;-3.05;100.00;93374.59;5010830;28;20506;-85
2022/02/25 01:11:30;;;;;;;29.90;14.48;;;;;;;-3.07;100.00;93376.41;5010476;28;20046;-86
2022/02/25 01:13:57;;;;;;;17.83;10.07;;;;;;;-3.06;100.00;93365.44;5010780;28;20046;-86
2022/02/25 01:16:24;;;;;;;19.02;10.10;;;;;;;-3.06;100.00;93369.69;5011080;28;20053;-86
2022/02/25 01:18:52;;;;;;;15.98;9.85;;;;;;;-3.13;100.00;93355.09;5010877;28;20490;-86
2022/02/25 01:21:19;;;;;;;21.50;12.10;;;;;;;-3.24;100.00;93347.63;5011270;28;20045;-86
2022/02/25 01:23:46;;;;;;;39.38;21.70;;;;;;;-3.20;100.00;93356.50;5010877;28;20100;-86
2022/02/25 01:26:13;;;;;;;38.50;19.42;;;;;;;-3.22;100.00;93348.28;5010679;28;20058;-86
2022/02/25 01:28:39;;;;;;;50.42;25.63;;;;;;;-3.06;100.00;93354.63;5010667;28;20465;-86
2022/02/25 01:31:06;;;;;;;55.83;29.00;;;;;;;-3.02;100.00;93348.44;5010689;28;20108;-86
2022/02/25 01:33:33;;;;;;;38.35;19.48;;;;;;;-3.06;100.00;93342.03;5010698;28;20081;-85
2022/02/25 01:36:01;;;;;;;23.77;12.52;;;;;;;-3.01;100.00;93345.00;5010779;28;20054;-86
2022/02/25 01:38:29;;;;;;;19.40;11.13;;;;;;;-3.03;100.00;93345.09;5010628;28;20050;-84
2022/02/25 01:40:56;;;;;;;18.75;10.25;;;;;;;-3.13;100.00;93334.19;5010550;28;20050;-86
2022/02/25 01:43:23;;;;;;;16.15;8.98;;;;;;;-3.02;100.00;93348.44;5010620;28;20053;-86
2022/02/25 01:45:50;;;;;;;13.77;7.82;;;;;;;-2.99;100.00;93351.50;5010773;28;20054;-86
2022/02/25 01:48:19;;;;;;;11.30;7.28;;;;;;;-2.99;100.00;93346.47;5010578;28;20050;-86
2022/02/25 01:50:46;;;;;;;238.18;83.60;;;;;;;-3.04;100.00;93332.66;5009937;28;20054;-86
2022/02/25 01:53:15;;;;;;;88.05;31.42;;;;;;;-3.06;100.00;93337.81;5009788;28;20042;-86
2022/02/25 01:55:43;;;;;;;51.47;19.25;;;;;;;-3.07;100.00;93325.38;5007591;28;20049;-86
2022/02/25 01:58:10;;;;;;;29.90;13.23;;;;;;;-3.04;100.00;93330.16;5011802;28;20140;-85
2022/02/25 02:00:37;;;;;;;22.23;11.02;;;;;;;-2.97;100.00;93343.78;5013998;28;20104;-86
2022/02/25 02:03:06;;;;;;;34.28;16.98;;;;;;;-3.05;100.00;93331.88;5014083;28;20046;-85
2022/02/25 02:05:33;;;;;;;13.93;6.97;;;;;;;-2.99;100.00;93333.88;5014108;28;20050;-84
2022/02/25 02:08:00;;;;;;;12.77;6.43;;;;;;;-3.17;100.00;93312.75;5013997;28;20050;-84
2022/02/25 02:10:29;;;;;;;12.57;6.65;;;;;;;-3.13;100.00;93327.47;5013868;28;20061;-85
2022/02/25 02:12:55;;;;;;;14.68;6.82;;;;;;;-3.10;100.00;93334.75;5014094;28;20406;-85
2022/02/25 02:15:22;;;;;;;11.35;6.57;;;;;;;-3.13;100.00;93329.97;5013969;28;20109;-85
2022/02/25 02:17:49;;;;;;;9.73;5.85;;;;;;;-3.14;100.00;93328.34;5014015;28;20046;-85
2022/02/25 02:20:16;;;;;;;8.38;4.88;;;;;;;-3.30;100.00;93322.97;5013904;28;20061;-85
2022/02/25 02:22:44;;;;;;;12.48;5.97;;;;;;;-3.46;100.00;93321.69;5013750;28;20045;-85
2022/02/25 02:25:11;;;;;;;9.60;5.70;;;;;;;-3.45;100.00;93327.50;5013979;28;20076;-85
2022/02/25 02:30:22;;;;;;;25.40;13.50;;;;;;;-3.67;100.00;93319.13;5013699;28;20064;-85
2022/02/25 02:32:49;;;;;;;25.27;14.38;;;;;;;-3.60;100.00;93315.25;5013663;28;20053;-84
2022/02/25 02:35:16;;;;;;;23.08;12.88;;;;;;;-3.51;100.00;93314.50;5013544;28;20050;-85
2022/02/25 02:37:44;;;;;;;27.58;13.00;;;;;;;-3.51;100.00;93306.97;5013775;28;20057;-85
2022/02/25 02:40:12;;;;;;;25.13;12.80;;;;;;;-3.84;100.00;93252.72;5013611;28;20057;-86
2022/02/25 02:42:39;;;;;;;22.65;12.70;;;;;;;-3.45;100.00;93302.38;5013545;28;20054;-86
2022/02/25 02:45:06;;;;;;;20.83;12.10;;;;;;;-3.40;100.00;93303.63;5013507;28;20053;-86
2022/02/25 02:47:33;;;;;;;22.63;12.98;;;;;;;-3.39;100.00;93304.41;5013255;28;20545;-86
2022/02/25 02:50:00;;;;;;;19.85;10.90;;;;;;;-3.49;100.00;93286.78;5013443;28;20077;-86
2022/02/25 02:52:28;;;;;;;20.60;11.93;;;;;;;-3.45;100.00;93290.63;5013436;28;20046;-86
2022/02/25 02:54:56;;;;;;;23.30;12.32;;;;;;;-3.63;100.00;93263.56;5013143;28;20042;-85
2022/02/25 02:57:23;;;;;;;21.58;11.32;;;;;;;-3.48;100.00;93293.38;5013156;28;20049;-86
2022/02/25 02:59:50;;;;;;;17.13;10.40;;;;;;;-3.50;100.00;93285.19;5013105;28;20096;-85
2022/02/25 03:02:17;;;;;;;19.60;10.77;;;;;;;-3.45;100.00;93292.34;5011337;28;20049;-85
2022/02/25 03:04:44;;;;;;;20.42;11.23;;;;;;;-3.51;100.00;93286.09;5013114;28;20418;-85
2022/02/25 03:07:11;;;;;;;19.77;10.63;;;;;;;-3.45;100.00;93293.16;5013096;28;20053;-85
2022/02/25 03:09:38;;;;;;;18.52;8.70;;;;;;;-3.56;100.00;93278.13;5012152;28;20053;-85
2022/02/25 03:12:08;;;;;;;13.90;7.00;;;;;;;-3.52;100.00;93292.06;5012982;28;20046;-85
2022/02/25 03:14:36;;;;;;;16.40;8.07;;;;;;;-3.62;100.00;93282.72;5012916;28;20056;-85
2022/02/25 03:17:03;;;;;;;13.20;7.30;;;;;;;-3.62;100.00;93285.25;5012722;28;20494;-86
2022/02/25 03:19:30;;;;;;;12.55;6.55;;;;;;;-3.64;100.00;93274.53;5012885;28;20391;-85
2022/02/25 03:21:57;;;;;;;9.70;6.28;;;;;;;-3.59;100.00;93289.22;5012682;28;20049;-85
2022/02/25 03:24:24;;;;;;;15.38;7.47;;;;;;;-3.67;100.00;93289.00;5012760;28;20414;-85
2022/02/25 03:26:51;;;;;;;11.15;6.10;;;;;;;-3.69;100.00;93284.13;5012559;28;20049;-85
2022/02/25 03:29:19;;;;;;;12.07;7.05;;;;;;;-3.66;100.00;93291.41;5012500;28;20058;-86
2022/02/25 03:31:46;;;;;;;12.13;6.57;;;;;;;-3.71;100.00;93295.22;5012540;28;20065;-86
2022/02/25 03:34:12;;;;;;;8.73;5.63;;;;;;;-3.71;100.00;93295.22;5012633;28;20054;-86
2022/02/25 03:36:39;;;;;;;9.63;5.18;;;;;;;-3.73;100.00;93297.03;5012360;28;20052;-86
2022/02/25 03:39:06;;;;;;;10.95;5.05;;;;;;;-3.77;100.00;93297.28;5012489;28;20054;-86
2022/02/25 03:41:33;;;;;;;8.00;4.75;;;;;;;-3.79;100.00;93295.81;5012386;28;20128;-86
2022/02/25 03:44:00;;;;;;;7.70;4.80;;;;;;;-3.86;100.00;93299.69;5012159;28;20057;-86
2022/02/25 03:46:29;;;;;;;8.73;4.97;;;;;;;-3.83;100.00;93315.34;5012521;28;20050;-85
2022/02/25 03:48:56;;;;;;;9.77;4.60;;;;;;;-3.85;100.00;93317.16;5012318;28;20050;-86
2022/02/25 03:51:23;;;;;;;11.43;5.75;;;;;;;-3.89;100.00;93324.13;5012172;28;20057;-86
2022/02/25 03:53:50;;;;;;;8.18;5.20;;;;;;;-3.90;100.00;93327.56;5011996;28;20050;-85
2022/02/25 03:56:17;;;;;;;9.13;5.00;;;;;;;-4.10;100.00;93306.50;5012004;28;20057;-85
2022/02/25 03:58:44;;;;;;;12.93;6.18;;;;;;;-3.97;100.00;93323.94;5011956;28;20057;-85
2022/02/25 04:01:11;;;;;;;14.30;7.55;;;;;;;-4.40;100.00;93274.53;5011946;28;20042;-85
2022/02/25 04:03:40;;;;;;;20.13;10.50;;;;;;;-4.11;100.00;93326.69;5012071;28;20057;-86
2022/02/25 04:06:07;;;;;;;26.55;14.32;;;;;;;-4.30;100.00;93316.34;5011971;28;20080;-86
2022/02/25 04:08:34;;;;;;;25.00;12.30;;;;;;;-4.17;100.00;93336.28;5011772;28;20426;-86
2022/02/25 04:11:02;;;;;;;24.92;12.18;;;;;;;-4.11;100.00;93334.22;5011694;28;20127;-86
2022/02/25 04:13:29;;;;;;;23.92;12.95;;;;;;;-4.12;100.00;93328.41;5011710;28;20045;-86
2022/02/25 04:16:02;;;;;;;28.92;13.98;;;;;;;-4.11;100.00;93325.00;5012357;28;20042;-87
2022/02/25 04:18:29;;;;;;;25.17;11.82;;;;;;;-4.17;100.00;93317.94;5011855;28;20132;-87
2022/02/25 04:20:57;;;;;;;28.42;13.00;;;;;;;-4.08;100.00;93342.31;5010789;28;20050;-87
2022/02/25 04:23:24;;;;;;;24.67;13.02;;;;;;;-4.06;100.00;93335.47;5011431;28;20050;-87
2022/02/25 04:25:51;;;;;;;25.90;12.40;;;;;;;-4.08;100.00;93332.28;5011913;28;20057;-87
2022/02/25 04:28:18;;;;;;;29.13;11.18;;;;;;;-4.05;100.00;93323.72;5011695;28;20057;-87
2022/02/25 04:30:46;;;;;;;21.73;10.02;;;;;;;-4.10;100.00;93316.56;5011371;28;20516;-87
2022/02/25 04:33:13;;;;;;;20.92;11.35;;;;;;;-4.22;100.00;93312.47;5011527;28;20057;-87
2022/02/25 04:35:41;;;;;;;19.15;10.25;;;;;;;-4.29;100.00;93300.38;5011452;28;20096;-88
2022/02/25 04:38:10;;;;;;;30.33;17.02;;;;;;;-4.23;100.00;93314.19;5011235;28;20046;-87
2022/02/25 04:40:39;;;;;;;19.08;10.85;;;;;;;-4.35;100.00;93315.91;5011354;28;20041;-88
2022/02/25 04:43:06;;;;;;;15.32;9.80;;;;;;;-4.47;100.00;93311.81;5011603;28;20046;-87
2022/02/25 04:45:33;;;;;;;23.00;10.43;;;;;;;-4.53;100.00;93309.78;5011370;28;20046;-88
2022/02/25 04:48:00;;;;;;;27.00;14.85;;;;;;;-4.66;100.00;93307.38;5011288;28;20103;-88
2022/02/25 04:50:30;;;;;;;22.10;12.65;;;;;;;-4.53;100.00;93299.75;5011751;28;20042;-88
2022/02/25 04:52:57;;;;;;;23.13;12.07;;;;;;;-4.52;100.00;93281.28;5011050;28;20498;-88
2022/02/25 04:55:25;;;;;;;19.85;11.85;;;;;;;-4.36;100.00;93290.97;5010942;28;20053;-86
2022/02/25 04:57:52;;;;;;;20.08;11.02;;;;;;;-4.29;100.00;93289.56;5011304;28;20065;-85
2022/02/25 05:00:19;;;;;;;19.90;10.77;;;;;;;-4.37;100.00;93274.28;5011027;28;20050;-87
2022/02/25 05:02:47;;;;;;;17.17;9.93;;;;;;;-4.19;100.00;93298.00;5012619;28;20443;-88
2022/02/25 05:05:14;;;;;;;20.42;9.32;;;;;;;-4.12;100.00;93305.81;5011015;28;20045;-88
2022/02/25 05:07:41;;;;;;;15.98;8.45;;;;;;;-4.10;100.00;93314.03;5010901;28;20053;-88
2022/02/25 05:10:09;;;;;;;17.02;8.88;;;;;;;-4.21;100.00;93297.28;5010849;28;20442;-88
2022/02/25 05:12:37;;;;;;;19.17;9.05;;;;;;;-4.25;100.00;93295.94;5011015;28;20046;-86
2022/02/25 05:20:34;;;;;;;14.10;8.95;;;;;;;-4.45;100.00;93307.47;5010800;28;20133;-86
2022/02/25 05:23:09;;;;;;;15.43;8.98;;;;;;;-4.60;100.00;93289.38;5010966;28;20042;-86
2022/02/25 05:25:40;;;;;;;17.25;9.90;;;;;;;-4.36;100.00;93316.81;5011039;28;20049;-87
2022/02/25 05:28:08;;;;;;;16.55;10.50;;;;;;;-4.30;100.00;93318.84;5010666;28;20050;-88
2022/02/25 05:30:35;;;;;;;15.50;8.68;;;;;;;-4.27;100.00;93315.31;5010907;28;20058;-86
2022/02/25 05:33:03;;;;;;;15.70;8.10;;;;;;;-4.21;100.00;93322.38;5012307;28;20490;-85
2022/02/25 05:35:30;;;;;;;14.55;8.57;;;;;;;-4.21;100.00;93312.34;5014651;28;20069;-87
2022/02/25 05:37:56;;;;;;;15.45;8.55;;;;;;;-4.17;100.00;93322.97;5014842;28;20042;-87
2022/02/25 05:40:23;;;;;;;15.65;8.57;;;;;;;-4.13;100.00;93323.53;5014625;28;20046;-86
2022/02/25 05:42:51;;;;;;;13.32;7.45;;;;;;;-4.14;100.00;93319.41;5014519;28;20057;-87
2022/02/25 05:45:22;;;;;;;17.23;8.68;;;;;;;-4.11;100.00;93322.50;5014821;28;20046;-87
2022/02/25 05:47:49;;;;;;;19.42;9.77;;;;;;;-4.08;100.00;93323.97;5014620;28;20054;-87
2022/02/25 05:50:18;;;;;;;18.50;10.18;;;;;;;-4.03;100.00;93330.22;5014510;28;20050;-87
2022/02/25 05:52:47;;;;;;;22.08;11.65;;;;;;;-3.96;100.00;93322.22;5014781;28;20053;-87
2022/02/25 05:55:15;;;;;;;28.85;11.63;;;;;;;-3.84;100.00;93328.00;5014433;28;20054;-87
2022/02/25 05:57:42;;;;;;;23.98;12.88;;;;;;;-3.73;100.00;93332.97;5014272;28;20486;-87
2022/02/25 06:00:11;;;;;;;37.42;18.88;;;;;;;-3.60;100.00;93310.22;5014211;28;20049;-87
2022/02/25 06:02:40;;;;;;;35.60;21.70;;;;;;;-3.65;100.00;93295.50;5014440;28;20069;-88
2022/02/25 06:05:09;;;;;;;41.10;22.90;;;;;;;-3.35;100.00;93320.84;5014385;28;20046;-87
2022/02/25 06:07:36;;;;;;;41.85;23.90;;;;;;;-3.38;100.00;93290.94;5014003;28;20084;-88
2022/02/25 06:10:04;;;;;;;27.70;15.65;;;;;;;-3.19;100.00;93307.84;5014350;28;20054;-88
2022/02/25 06:12:31;;;;;;;35.03;17.98;;;;;;;-3.14;100.00;93313.28;5014358;28;20054;-88
2022/02/25 06:14:58;;;;;;;36.03;21.30;;;;;;;-2.95;100.00;93314.31;5013979;28;20512;-88
2022/02/25 06:17:24;;;;;;;33.88;17.17;;;;;;;-2.86;100.00;93315.28;5013964;28;20045;-88
2022/02/25 06:19:53;;;;;;;29.45;16.27;;;;;;;-2.90;100.00;93329.84;5013939;28;20054;-88
2022/02/25 06:22:19;;;;;;;37.00;18.75;;;;;;;-2.82;100.00;93322.44;5013761;28;20081;-88
2022/02/25 06:24:46;;;;;;;50.85;27.30;;;;;;;-2.66;100.00;93321.19;5013706;28;20487;-88
2022/02/25 06:27:13;;;;;;;50.10;24.95;;;;;;;-2.44;100.00;93320.22;5013923;28;20046;-89
2022/02/25 06:29:40;;;;;;;40.80;21.63;;;;;;;-2.28;100.00;93322.25;5013614;28;20057;-89
2022/02/25 06:32:07;;;;;;;27.17;16.88;;;;;;;-2.21;100.00;93329.28;5013651;28;20053;-89
2022/02/25 06:34:35;;;;;;;26.95;14.20;;;;;;;-2.31;100.00;93324.25;5013584;28;20042;-88
2022/02/25 06:37:05;;;;;;;33.28;16.80;;;;;;;-2.55;100.00;93321.13;5013460;28;20112;-89
2022/02/25 06:39:32;;;;;;;37.35;19.08;;;;;;;-2.52;100.00;93326.81;5013573;28;20046;-89
2022/02/25 06:41:59;;;;;;;45.53;22.83;;;;;;;-2.78;100.00;93314.66;5013338;28;20053;-89
2022/02/25 06:44:26;;;;;;;45.35;24.10;;;;;;;-3.14;100.00;93294.91;5012452;28;20080;-90
2022/02/25 06:46:52;;;;;;;46.92;25.48;;;;;;;-2.78;100.00;93334.78;5013424;28;20050;-90
2022/02/25 06:49:22;;;;;;;41.55;21.92;;;;;;;-2.84;100.00;93314.25;5013271;28;20065;-90
2022/02/25 06:51:49;;;;;;;38.42;21.65;;;;;;;-2.26;100.00;93354.03;5013260;28;20417;-90
2022/02/25 06:54:17;;;;;;;40.33;22.15;;;;;;;-2.03;100.00;93339.53;5013239;28;20053;-91
2022/02/25 06:56:44;;;;;;;48.38;23.40;;;;;;;-1.76;100.00;93348.97;5013225;28;20061;-91
2022/02/25 06:59:11;;;;;;;51.25;25.17;;;;;;;-1.56;100.00;93338.13;5013206;28;20053;-91
2022/02/25 07:01:38;;;;;;;48.38;24.50;;;;;;;-1.44;100.00;93347.13;5012839;28;20108;-91
2022/02/25 07:04:05;;;;;;;48.78;26.27;;;;;;;-1.54;100.00;93349.66;5013377;28;20812;-91
2022/02/25 07:06:33;;;;;;;45.78;22.48;;;;;;;-1.95;100.00;93313.72;5013087;28;20132;-91
2022/02/25 07:09:01;;;;;;;45.60;23.17;;;;;;;-1.90;100.00;93330.00;5013024;28;20129;-92
2022/02/25 07:11:31;;;;;;;48.92;22.85;;;;;;;-1.73;100.00;93332.03;5013021;28;20494;-92
2022/02/25 07:13:58;;;;;;;59.78;30.00;;;;;;;-1.57;100.00;93336.53;5012860;28;20046;-93
2022/02/25 07:16:26;;;;;;;45.42;22.75;;;;;;;-1.30;100.00;93345.16;5012784;28;20049;-93
2022/02/25 07:18:53;;;;;;;63.58;25.17;;;;;;;-1.42;100.00;93330.19;5012689;28;20494;-96
2022/02/25 07:21:20;;;;;;;53.38;23.60;;;;;;;-2.12;100.00;93222.00;5012879;28;20399;-95
2022/02/25 07:23:47;;;;;;;63.85;25.10;;;;;;;-1.11;100.00;93342.59;5012567;28;20490;-95
2022/02/25 07:26:15;;;;;;;65.07;27.27;;;;;;;-1.06;100.00;93328.81;5012754;28;20049;-96
2022/02/25 07:28:45;;;;;;;54.92;26.02;;;;;;;-0.82;100.00;93330.88;5012812;28;20062;-96
2022/02/25 07:31:14;;;;;;;65.18;25.40;;;;;;;-0.57;100.00;93329.47;5013989;28;20090;-96
2022/02/25 07:33:41;;;;;;;60.58;25.70;;;;;;;-0.89;100.00;93242.34;5035080;23;20076;-83
2022/02/25 07:36:08;;;;;;;58.28;26.10;;;;;;;-0.48;100.00;93261.44;4933770;29;20047;-83
2022/02/25 07:38:35;;;;;;;79.82;27.80;;;;;;;-0.22;99.59;93271.66;4933342;29;20098;-83
2022/02/25 07:41:02;;;;;;;90.30;30.30;;;;;;;-0.05;97.22;93307.19;4933759;29;20462;-82
2022/02/25 07:43:29;;;;;;;72.72;29.45;;;;;;;0.39;98.28;93336.81;4933327;29;20063;-82
2022/02/25 07:45:57;;;;;;;84.97;28.52;;;;;;;0.16;98.73;93291.75;4933400;29;20103;-82
2022/02/25 07:48:24;;;;;;;90.65;31.00;;;;;;;0.73;98.45;93332.81;4933578;29;20055;-83
2022/02/25 07:50:51;;;;;;;90.13;28.90;;;;;;;0.45;97.40;93277.28;4933480;29;20048;-83
2022/02/25 07:53:18;;;;;;;87.63;27.88;;;;;;;0.70;96.89;93292.66;4930359;29;20051;-83
2022/02/25 07:55:46;;;;;;;103.30;30.02;;;;;;;0.46;95.79;93273.84;4932121;29;20063;-83
2022/02/25 07:58:13;;;;;;;104.40;30.80;;;;;;;0.73;94.51;93313.38;4932875;29;20450;-83
2022/02/25 08:00:40;;;;;;;85.22;27.90;;;;;;;0.26;95.01;93271.47;4932544;29;20058;-83
2022/02/25 08:03:09;;;;;;;80.45;29.63;;;;;;;0.61;96.83;93327.97;4935584;29;20054;-84
2022/02/25 08:05:36;;;;;;;97.15;31.08;;;;;;;0.64;94.70;93316.78;4942885;29;20055;-83
2022/02/25 08:08:06;;;;;;;97.22;33.15;;;;;;;0.24;93.81;93243.81;4943819;29;20126;-84
2022/02/25 08:10:35;;;;;;;106.32;38.60;;;;;;;0.88;92.49;93303.53;4932941;29;20071;-88
2022/02/25 08:13:08;;;;;;;104.30;36.92;;;;;;;0.43;90.87;93221.88;4932873;29;20138;-86
2022/02/25 08:15:36;;;;;;;111.97;38.83;;;;;;;0.89;91.36;93282.34;4932917;29;20151;-86
2022/02/25 08:18:05;;;;;;;98.45;36.40;;;;;;;1.28;93.52;93296.34;4932908;29;20420;-87
2022/02/25 08:20:39;;;;;;;91.43;34.75;;;;;;;1.57;90.85;93290.16;4932672;29;20115;-87
2022/02/25 08:23:17;;;;;;;90.03;36.13;;;;;;;1.48;87.50;93221.91;4930337;29;20052;-88
2022/02/25 08:25:47;;;;;;;85.07;35.92;;;;;;;1.22;90.38;93145.13;4932662;29;20067;-89
2022/02/25 08:28:35;;;;;;;73.30;28.00;;;;;;;1.58;90.40;93136.50;4932651;29;20501;-89
2022/02/25 08:31:17;;;;;;;21.08;8.57;;;;;;;2.51;76.52;93214.91;4933460;29;20058;-91
2022/02/25 08:45:27;;;;;;;37.72;16.63;;;;;;;2.99;79.86;93103.34;4865307;29;20061;-91
2022/02/25 08:48:32;;;;;;;35.20;14.80;;;;;;;3.19;79.11;93092.75;4873335;29;20589;-90
2022/02/25 08:51:58;;;;;;;48.83;20.45;;;;;;;3.63;75.87;93103.31;4856888;29;20056;-91
2022/02/25 08:57:26;;;;;;;109.60;48.55;;;;;;;4.19;76.30;93086.97;4865347;29;20065;-90
2022/02/25 08:59:57;;;;;;;38.22;17.42;;;;;;;4.54;76.93;93116.03;4913358;29;20075;-90
2022/02/25 09:02:24;;;;;;;28.98;11.80;;;;;;;5.85;73.80;93253.22;4914170;29;20066;-86
2022/02/25 09:04:51;;;;;;;21.55;10.15;;;;;;;6.09;68.63;93257.22;4913071;29;20044;-86
2022/02/25 09:07:19;;;;;;;15.63;7.85;;;;;;;6.17;63.69;93252.97;4912222;29;20521;-87
2022/02/25 09:09:46;;;;;;;60.50;23.60;;;;;;;5.69;65.08;93168.34;4912847;29;20055;-87
2022/02/25 09:12:13;;;;;;;33.42;13.35;;;;;;;6.14;62.45;93198.81;4912290;29;20063;-89
2022/02/25 09:14:40;;;;;;;27.88;12.73;;;;;;;5.81;62.23;93134.72;4912895;29;20076;-89
2022/02/25 09:17:08;;;;;;;10.80;4.20;;;;;;;5.92;52.18;93151.31;4912478;29;20406;-89
2022/02/25 09:19:35;;;;;;;15.15;7.15;;;;;;;5.68;52.23;93143.81;4912008;29;20067;-90
2022/02/25 09:22:08;;;;;;;12.68;6.45;;;;;;;5.07;53.26;93110.06;4912707;29;20056;-90
2022/02/25 09:24:37;;;;;;;14.32;6.60;;;;;;;5.22;56.80;93094.75;4912317;29;20056;-89
2022/02/25 09:27:04;;;;;;;11.45;5.05;;;;;;;5.87;54.54;93190.88;4913089;29;20072;-89
2022/02/25 09:29:51;;;;;;;13.00;5.95;;;;;;;5.75;51.72;93162.50;4913673;29;20456;-91
2022/02/25 09:32:34;;;;;;;12.07;5.00;;;;;;;5.70;50.18;93103.66;4914157;29;20131;-90
2022/02/25 09:35:30;;;;;;;15.23;5.85;;;;;;;6.60;55.49;93194.28;4913729;29;20687;-90
2022/02/25 09:38:08;;;;;;;13.20;5.60;;;;;;;5.71;50.42;93168.16;4913612;29;20517;-89
2022/02/25 09:40:47;;;;;;;18.98;8.45;;;;;;;5.01;49.42;93132.91;4928510;29;20052;-84
2022/02/25 09:43:24;;;;;;;16.23;6.45;;;;;;;5.85;54.98;93189.47;4932195;29;20135;-90
2022/02/25 09:45:52;;;;;;;10.60;4.65;;;;;;;6.08;57.64;93150.28;4932162;29;20501;-85
2022/02/25 09:48:21;;;;;;;9.85;4.10;;;;;;;5.77;54.11;93046.84;4932428;29;20146;-89
2022/02/25 09:50:54;;;;;;;11.50;4.00;;;;;;;6.81;52.96;93165.34;4931998;29;20063;-89
2022/02/25 09:53:22;;;;;;;9.70;4.38;;;;;;;6.57;50.61;93090.00;4932095;29;20083;-90
2022/02/25 09:55:50;;;;;;;13.65;4.22;;;;;;;6.50;48.37;93068.75;4932136;29;20134;-89
2022/02/25 09:58:17;;;;;;;12.05;3.75;;;;;;;6.59;40.79;93070.19;4931528;29;20130;-89
2022/02/25 10:00:44;;;;;;;8.98;2.90;;;;;;;6.80;41.18;93083.84;4920031;29;20049;-92
2022/02/25 10:03:15;;;;;;;9.75;2.80;;;;;;;7.40;37.47;93188.03;4931287;29;20071;-88
2022/02/25 10:05:43;;;;;;;5.72;2.70;;;;;;;7.14;37.93;93183.59;4931947;29;20056;-92
2022/02/25 10:08:12;;;;;;;14.02;4.70;;;;;;;6.27;41.83;93018.78;4928746;29;20474;-89
2022/02/25 10:11:15;;;;;;;13.27;4.72;;;;;;;6.33;38.18;93009.59;4931171;29;20052;-88
2022/02/25 10:13:44;;;;;;;11.38;6.03;;;;;;;7.25;38.34;93105.63;4927094;29;20457;-89
2022/02/25 10:16:12;;;;;;;9.27;3.35;;;;;;;7.51;38.26;93148.38;4932103;29;20070;-89
2022/02/25 10:18:39;;;;;;;10.40;4.10;;;;;;;6.84;40.74;93028.88;4932118;29;20048;-89
2022/02/25 10:21:08;;;;;;;12.70;5.28;;;;;;;7.85;43.73;93126.25;4934920;29;20056;-90
2022/02/25 10:23:37;;;;;;;8.60;3.10;;;;;;;8.28;40.75;93155.00;4934787;29;20056;-89
2022/02/25 10:26:15;;;;;;;7.97;3.45;;;;;;;7.66;40.46;93024.72;4927796;29;20051;-89
2022/02/25 10:28:46;;;;;;;15.30;3.50;;;;;;;8.62;41.42;93134.53;4935227;29;20052;-89
2022/02/25 10:31:21;;;;;;;9.30;3.58;;;;;;;8.42;38.23;93090.03;4935445;29;20058;-88
2022/02/25 10:34:03;;;;;;;5.57;2.42;;;;;;;8.55;38.58;93109.75;4934534;29;20051;-87
2022/02/25 10:36:44;;;;;;;6.20;2.22;;;;;;;8.23;36.20;93089.06;4934779;29;20056;-87
2022/02/25 10:39:12;;;;;;;8.27;2.60;;;;;;;8.73;39.67;93135.69;4934178;29;20503;-88
2022/02/25 10:41:40;;;;;;;5.47;2.08;;;;;;;7.43;33.35;93048.88;4935039;29;20047;-86
2022/02/25 10:44:08;;;;;;;5.60;2.47;;;;;;;7.69;36.16;93014.88;4934331;29;20091;-88
2022/02/25 10:46:36;;;;;;;6.72;2.50;;;;;;;8.37;36.62;93094.97;4932263;29;20052;-87
2022/02/25 10:49:07;;;;;;;13.60;3.78;;;;;;;8.54;38.54;93080.00;4932123;29;20059;-88
2022/02/25 10:51:36;;;;;;;12.18;3.92;;;;;;;8.75;38.97;93075.59;4933619;29;20052;-88
2022/02/25 10:54:05;;;;;;;11.10;3.58;;;;;;;8.42;34.75;93027.81;4934085;29;20063;-89
2022/02/25 10:56:44;;;;;;;10.05;3.63;;;;;;;8.91;36.71;93127.41;4933869;29;20048;-89
2022/02/25 10:59:13;;;;;;;10.98;3.67;;;;;;;8.48;33.47;93044.16;4934867;29;20060;-88
2022/02/25 11:01:43;;;;;;;14.13;4.30;;;;;;;8.86;35.08;93120.31;4934420;29;20052;-93
2022/02/25 11:04:13;;;;;;;13.07;5.20;;;;;;;8.06;37.20;92942.06;4933311;29;20067;-88
2022/02/25 11:06:41;;;;;;;12.68;4.70;;;;;;;9.39;39.65;93097.28;4934717;29;20565;-88
2022/02/25 11:09:19;;;;;;;15.80;8.02;;;;;;;9.46;39.04;93062.94;4934511;29;20054;-91
2022/02/25 11:11:48;;;;;;;13.55;5.20;;;;;;;9.38;37.77;93018.78;4935702;29;20051;-87
2022/02/25 11:14:16;;;;;;;16.65;5.20;;;;;;;9.99;40.10;93073.00;4933521;29;20064;-87
2022/02/25 11:16:46;;;;;;;12.15;5.20;;;;;;;9.71;36.66;93005.75;4933737;29;20051;-87
2022/02/25 11:19:13;;;;;;;11.57;4.43;;;;;;;9.60;38.85;93014.91;4933406;29;20425;-88
2022/02/25 11:21:40;;;;;;;14.70;4.78;;;;;;;9.99;38.45;93060.19;4933930;29;20052;-88
2022/02/25 11:24:12;;;;;;;20.08;4.45;;;;;;;9.89;36.02;93033.25;4934052;29;20052;-89
2022/02/25 11:26:42;;;;;;;12.45;3.22;;;;;;;10.05;37.68;93015.75;4934317;29;20142;-88
2022/02/25 11:29:16;;;;;;;10.32;4.53;;;;;;;9.60;38.40;92927.72;4934340;29;20055;-89
2022/02/25 11:31:46;;;;;;;15.60;3.90;;;;;;;9.83;38.36;92946.06;4930182;29;20048;-89
2022/02/25 11:34:14;;;;;;;7.45;2.22;;;;;;;9.58;36.20;92905.84;4932138;29;20055;-89
2022/02/25 11:36:43;;;;;;;10.15;2.97;;;;;;;9.11;34.93;92895.94;4933501;29;20098;-88
2022/02/25 11:39:19;;;;;;;13.55;2.92;;;;;;;9.33;35.40;92898.94;4933469;29;20416;-89
2022/02/25 11:41:49;;;;;;;9.05;3.75;;;;;;;8.67;34.15;92878.69;4932837;29;20619;-89
2022/02/25 11:44:16;;;;;;;12.75;6.55;;;;;;;9.68;36.01;93011.28;4933886;29;20052;-88
2022/02/25 11:46:53;;;;;;;11.18;3.60;;;;;;;9.99;37.78;93029.41;4933929;29;20071;-90
2022/02/25 11:49:24;;;;;;;11.13;5.68;;;;;;;10.45;38.28;93049.78;4933728;29;20078;-90